createdAt,value
2023-06-22T00:01:36.338Z,70
2023-06-22T00:03:16.087Z,70
2023-06-22T00:04:55.861Z,70
2023-06-22T00:06:35.704Z,70
2023-06-22T00:08:15.466Z,70
2023-06-22T00:09:55.135Z,70
2023-06-22T00:11:34.885Z,70
2023-06-22T00:13:14.783Z,70
2023-06-22T00:14:54.432Z,70
2023-06-22T00:16:34.263Z,70
2023-06-22T00:18:13.984Z,70
2023-06-22T00:19:53.732Z,70
2023-06-22T00:21:33.590Z,70
2023-06-22T00:23:13.277Z,70
2023-06-22T00:24:53.082Z,70
2023-06-22T00:26:32.914Z,70
2023-06-22T00:28:12.575Z,70
2023-06-22T00:29:52.388Z,70
2023-06-22T00:31:32.146Z,70
2023-06-22T00:33:11.913Z,70
2023-06-22T00:34:51.663Z,70
2023-06-22T00:36:31.413Z,69
2023-06-22T00:38:11.170Z,70
2023-06-22T00:39:50.958Z,69
2023-06-22T00:41:30.717Z,70
2023-06-22T00:43:10.551Z,69
2023-06-22T00:44:50.245Z,69
2023-06-22T00:46:30.010Z,69
2023-06-22T00:48:09.786Z,69
2023-06-22T00:49:49.550Z,69
2023-06-22T00:51:29.306Z,69
2023-06-22T00:53:09.109Z,69
2023-06-22T00:54:48.877Z,69
2023-06-22T00:56:28.675Z,69
2023-06-22T00:58:08.426Z,69
2023-06-22T00:59:48.175Z,69
2023-06-22T01:01:27.933Z,69
2023-06-22T01:03:07.690Z,69
2023-06-22T01:04:47.503Z,69
2023-06-22T01:06:27.221Z,69
2023-06-22T01:08:06.991Z,69
2023-06-22T01:09:46.768Z,69
2023-06-22T01:11:26.534Z,69
2023-06-22T01:13:06.296Z,69
2023-06-22T01:14:46.074Z,69
2023-06-22T01:16:25.835Z,69
2023-06-22T01:18:05.605Z,68
2023-06-22T01:19:45.399Z,68
2023-06-22T01:21:25.119Z,68
2023-06-22T01:23:04.883Z,68
2023-06-22T01:24:44.668Z,68
2023-06-22T01:26:24.551Z,68
2023-06-22T01:28:04.200Z,68
2023-06-22T01:29:44.059Z,68
2023-06-22T01:31:23.735Z,68
2023-06-22T01:33:03.565Z,68
2023-06-22T01:34:43.262Z,68
2023-06-22T01:36:23.032Z,68
2023-06-22T01:38:02.811Z,68
2023-06-22T01:39:42.569Z,68
2023-06-22T01:41:22.350Z,68
2023-06-22T01:43:02.108Z,68
2023-06-22T01:44:41.932Z,68
2023-06-22T01:46:21.702Z,68
2023-06-22T01:48:01.420Z,68
2023-06-22T01:49:41.191Z,68
2023-06-22T01:51:20.946Z,68
2023-06-22T01:53:00.707Z,68
2023-06-22T01:54:40.490Z,68
2023-06-22T01:56:20.269Z,68
2023-06-22T01:58:00.023Z,67
2023-06-22T01:59:39.796Z,67
2023-06-22T02:01:19.552Z,67
2023-06-22T02:02:59.309Z,68
2023-06-22T02:04:39.104Z,68
2023-06-22T02:06:18.883Z,68
2023-06-22T02:07:58.665Z,67
2023-06-22T02:09:38.428Z,67
2023-06-22T02:11:18.193Z,68
2023-06-22T02:12:57.926Z,68
2023-06-22T02:14:37.690Z,67
2023-06-22T02:16:17.466Z,67
2023-06-22T02:17:57.241Z,67
2023-06-22T02:19:36.991Z,66
2023-06-22T02:21:16.759Z,67
2023-06-22T02:22:56.542Z,66
2023-06-22T02:24:36.307Z,66
2023-06-22T02:26:16.077Z,66
2023-06-22T02:27:55.837Z,66
2023-06-22T02:29:35.646Z,66
2023-06-22T02:31:15.370Z,66
2023-06-22T02:32:55.144Z,66
2023-06-22T02:34:34.900Z,66
2023-06-22T02:36:14.699Z,66
2023-06-22T02:37:54.489Z,66
2023-06-22T02:39:34.234Z,66
2023-06-22T02:41:13.967Z,66
2023-06-22T02:42:53.734Z,66
2023-06-22T02:44:33.539Z,66
2023-06-22T02:46:13.281Z,66
2023-06-22T02:47:53.048Z,66
2023-06-22T02:49:32.836Z,66
2023-06-22T02:51:12.584Z,66
2023-06-22T02:52:52.344Z,66
2023-06-22T02:54:32.108Z,67
2023-06-22T02:56:11.953Z,67
2023-06-22T02:57:51.650Z,67
2023-06-22T02:59:31.419Z,67
2023-06-22T03:01:11.206Z,68
2023-06-22T03:02:50.969Z,67
2023-06-22T03:04:30.711Z,67
2023-06-22T03:06:10.555Z,66
2023-06-22T03:07:50.261Z,63
2023-06-22T03:09:30.027Z,57
2023-06-22T03:11:09.799Z,51
2023-06-22T03:12:49.606Z,45
2023-06-22T03:14:29.351Z,40
2023-06-22T03:16:09.124Z,35
2023-06-22T03:17:48.877Z,35
2023-06-22T03:19:28.654Z,37
2023-06-22T03:21:08.416Z,36
2023-06-22T03:22:48.197Z,36
2023-06-22T03:24:27.949Z,36
2023-06-22T03:26:07.775Z,37
2023-06-22T03:27:47.499Z,37
2023-06-22T03:29:27.267Z,37
2023-06-22T03:31:07.054Z,38
2023-06-22T03:32:46.854Z,38
2023-06-22T03:34:26.573Z,38
2023-06-22T03:36:06.350Z,39
2023-06-22T03:37:46.116Z,39
2023-06-22T03:39:25.889Z,40
2023-06-22T03:41:05.668Z,40
2023-06-22T03:42:45.427Z,40
2023-06-22T03:44:25.235Z,41
2023-06-22T03:46:04.976Z,42
2023-06-22T03:47:44.810Z,42
2023-06-22T03:49:24.547Z,43
2023-06-22T03:51:04.278Z,43
2023-06-22T03:52:44.151Z,44
2023-06-22T03:54:23.834Z,44
2023-06-22T03:56:03.585Z,45
2023-06-22T03:57:43.354Z,45
2023-06-22T03:59:23.174Z,46
2023-06-22T04:01:02.898Z,46
2023-06-22T04:02:42.729Z,47
2023-06-22T04:04:22.455Z,48
2023-06-22T04:06:02.272Z,49
2023-06-22T04:07:42.011Z,49
2023-06-22T04:09:21.761Z,50
2023-06-22T04:11:01.558Z,50
2023-06-22T04:12:41.294Z,51
2023-06-22T04:14:21.075Z,52
2023-06-22T04:16:00.831Z,53
2023-06-22T04:17:40.609Z,53
2023-06-22T04:19:20.428Z,55
2023-06-22T04:21:00.206Z,58
2023-06-22T04:22:39.916Z,57
2023-06-22T04:24:19.682Z,58
2023-06-22T04:25:59.458Z,59
2023-06-22T04:27:39.326Z,59
2023-06-22T04:29:19.065Z,60
2023-06-22T04:30:58.794Z,61
2023-06-22T04:32:38.576Z,62
2023-06-22T04:34:18.382Z,63
2023-06-22T04:35:58.111Z,64
2023-06-22T04:37:37.876Z,66
2023-06-22T04:39:17.651Z,67
2023-06-22T04:40:57.382Z,68
2023-06-22T04:42:37.198Z,69
2023-06-22T04:44:16.924Z,70
2023-06-22T04:45:56.700Z,72
2023-06-22T04:47:36.569Z,73
2023-06-22T04:49:16.270Z,72
2023-06-22T04:50:56.010Z,73
2023-06-22T04:52:35.800Z,74
2023-06-22T04:54:15.553Z,78
2023-06-22T04:55:55.314Z,80
2023-06-22T04:57:35.096Z,81
2023-06-22T04:59:14.883Z,82
2023-06-22T05:00:54.639Z,84
2023-06-22T05:02:34.465Z,86
2023-06-22T05:04:14.188Z,90
2023-06-22T05:05:53.975Z,90
2023-06-22T05:07:33.765Z,91
2023-06-22T05:09:13.485Z,90
2023-06-22T05:10:53.307Z,91
2023-06-22T05:12:33.064Z,92
2023-06-22T05:14:12.800Z,92
2023-06-22T05:15:52.658Z,91
2023-06-22T05:17:32.428Z,92
2023-06-22T05:19:12.145Z,92
2023-06-22T05:20:52.053Z,92
2023-06-22T05:22:31.665Z,92
2023-06-22T05:24:11.527Z,92
2023-06-22T05:25:51.209Z,92
2023-06-22T05:27:30.987Z,92
2023-06-22T05:29:10.739Z,93
2023-06-22T05:30:50.519Z,92
2023-06-22T05:32:30.293Z,93
2023-06-22T05:34:10.070Z,92
2023-06-22T05:35:49.826Z,93
2023-06-22T05:37:29.590Z,93
2023-06-22T05:39:09.362Z,93
2023-06-22T05:40:49.116Z,93
2023-06-22T05:42:28.971Z,93
2023-06-22T05:44:08.715Z,93
2023-06-22T05:45:48.453Z,93
2023-06-22T05:47:28.210Z,93
2023-06-22T05:49:07.982Z,93
2023-06-22T05:50:47.749Z,94
2023-06-22T05:52:27.518Z,94
2023-06-22T05:54:07.347Z,94
2023-06-22T05:55:47.093Z,93
2023-06-22T05:57:26.843Z,94
2023-06-22T05:59:06.684Z,94
2023-06-22T06:00:46.520Z,94
2023-06-22T06:02:26.247Z,94
2023-06-22T06:04:06.015Z,95
2023-06-22T06:05:45.738Z,94
2023-06-22T06:07:25.456Z,95
2023-06-22T06:09:05.231Z,95
2023-06-22T06:10:45.180Z,95
2023-06-22T06:12:24.877Z,95
2023-06-22T06:14:04.623Z,95
2023-06-22T06:15:44.406Z,95
2023-06-22T06:17:24.128Z,95
2023-06-22T06:19:04.080Z,95
2023-06-22T06:20:43.739Z,95
2023-06-22T06:22:23.420Z,95
2023-06-22T06:24:03.209Z,95
2023-06-22T06:25:43.054Z,96
2023-06-22T06:27:22.801Z,96
2023-06-22T06:29:02.481Z,96
2023-06-22T06:30:42.277Z,96
2023-06-22T06:32:22.036Z,96
2023-06-22T06:34:01.851Z,96
2023-06-22T06:35:41.734Z,96
2023-06-22T06:37:21.347Z,96
2023-06-22T06:39:01.210Z,96
2023-06-22T06:40:40.872Z,97
2023-06-22T06:42:20.653Z,97
2023-06-22T06:44:00.581Z,97
2023-06-22T06:45:40.248Z,97
2023-06-22T06:47:19.957Z,97
2023-06-22T06:48:59.819Z,97
2023-06-22T06:50:39.503Z,97
2023-06-22T06:52:19.270Z,97
2023-06-22T06:53:59.042Z,97
2023-06-22T06:55:38.886Z,97
2023-06-22T06:57:18.647Z,97
2023-06-22T06:58:58.366Z,97
2023-06-22T07:00:38.227Z,97
2023-06-22T07:02:17.905Z,98
2023-06-22T07:03:57.659Z,98
2023-06-22T07:05:37.442Z,98
2023-06-22T07:07:17.400Z,98
2023-06-22T07:08:56.996Z,98
2023-06-22T07:10:36.908Z,98
2023-06-22T07:12:16.643Z,98
2023-06-22T07:13:56.289Z,98
2023-06-22T07:15:36.092Z,98
2023-06-22T07:17:15.820Z,98
2023-06-22T07:18:55.673Z,99
2023-06-22T07:20:35.357Z,99
2023-06-22T07:22:15.131Z,99
2023-06-22T07:23:55.084Z,99
2023-06-22T07:25:34.785Z,99
2023-06-22T07:27:14.548Z,99
2023-06-22T07:28:54.399Z,99
2023-06-22T07:30:33.981Z,99
2023-06-22T07:32:13.909Z,100
2023-06-22T07:33:53.518Z,99
2023-06-22T07:35:33.310Z,100
2023-06-22T07:37:13.078Z,100
2023-06-22T07:38:52.839Z,99
2023-06-22T07:40:32.724Z,100
2023-06-22T07:42:12.386Z,100
2023-06-22T07:43:52.270Z,100
2023-06-22T07:45:32.021Z,100
2023-06-22T07:47:11.688Z,100
2023-06-22T07:48:51.536Z,100
2023-06-22T07:50:31.236Z,100
2023-06-22T07:52:11.018Z,100
2023-06-22T07:53:50.777Z,100
2023-06-22T07:55:30.661Z,100
2023-06-22T07:57:10.322Z,100
2023-06-22T07:58:50.091Z,100
2023-06-22T08:00:29.918Z,100
2023-06-22T08:02:09.645Z,100
2023-06-22T08:03:49.420Z,100
2023-06-22T08:05:29.154Z,100
2023-06-22T08:07:09.118Z,100
2023-06-22T08:08:48.723Z,100
2023-06-22T08:10:28.481Z,100
2023-06-22T08:12:08.243Z,100
2023-06-22T08:13:48.036Z,100
2023-06-22T08:15:27.986Z,100
2023-06-22T08:17:07.670Z,100
2023-06-22T08:18:47.343Z,100
2023-06-22T08:20:27.156Z,100
2023-06-22T08:22:06.992Z,100
2023-06-22T08:23:46.710Z,100
2023-06-22T08:25:26.399Z,100
2023-06-22T08:27:06.231Z,100
2023-06-22T08:28:46.027Z,100
2023-06-22T08:30:25.784Z,100
2023-06-22T08:32:05.497Z,100
2023-06-22T08:33:45.270Z,100
2023-06-22T08:35:25.042Z,100
2023-06-22T08:37:04.797Z,100
2023-06-22T08:38:44.724Z,100
2023-06-22T08:40:24.494Z,100
2023-06-22T08:42:04.160Z,100
2023-06-22T08:43:43.878Z,100
2023-06-22T08:45:23.640Z,100
2023-06-22T08:47:03.500Z,100
2023-06-22T08:48:43.286Z,100
2023-06-22T08:50:22.968Z,100
2023-06-22T08:52:02.738Z,100
2023-06-22T08:53:42.524Z,100
2023-06-22T08:55:22.318Z,100
2023-06-22T08:57:02.107Z,100
2023-06-22T08:58:41.820Z,100
2023-06-22T09:00:21.580Z,100
2023-06-22T09:02:01.357Z,100
2023-06-22T09:03:41.129Z,100
2023-06-22T09:05:20.926Z,100
2023-06-22T09:07:00.707Z,100
2023-06-22T09:08:40.563Z,100
2023-06-22T09:10:20.228Z,100
2023-06-22T09:12:00.047Z,100
2023-06-22T09:13:39.742Z,100
2023-06-22T09:15:19.565Z,100
2023-06-22T09:16:59.341Z,100
2023-06-22T09:18:39.273Z,100
2023-06-22T09:20:18.951Z,100
2023-06-22T09:21:58.613Z,100
2023-06-22T09:23:38.499Z,100
2023-06-22T09:25:18.141Z,100
2023-06-22T09:26:57.998Z,100
2023-06-22T09:28:37.695Z,100
2023-06-22T09:30:17.487Z,100
2023-06-22T09:31:57.236Z,100
2023-06-22T09:33:37.140Z,100
2023-06-22T09:35:16.832Z,100
2023-06-22T09:36:56.549Z,100
2023-06-22T09:38:36.375Z,100
2023-06-22T09:40:16.110Z,100
2023-06-22T09:41:55.914Z,100
2023-06-22T09:43:35.617Z,100
2023-06-22T09:45:15.391Z,100
2023-06-22T09:46:55.241Z,100
2023-06-22T09:48:34.942Z,100
2023-06-22T09:50:14.796Z,100
2023-06-22T09:51:54.479Z,100
2023-06-22T09:53:34.391Z,100
2023-06-22T09:55:14.016Z,100
2023-06-22T09:56:53.971Z,100
2023-06-22T09:58:33.576Z,100
2023-06-22T10:00:13.324Z,100
2023-06-22T10:01:53.117Z,100
2023-06-22T10:03:32.877Z,100
2023-06-22T10:05:12.657Z,100
2023-06-22T10:06:52.442Z,100
2023-06-22T10:08:32.360Z,100
2023-06-22T10:10:12.004Z,100
2023-06-22T10:11:51.721Z,100
2023-06-22T10:13:31.558Z,100
2023-06-22T10:15:11.291Z,100
2023-06-22T10:16:51.064Z,100
2023-06-22T10:18:30.796Z,100
2023-06-22T10:20:10.584Z,100
2023-06-22T10:21:50.376Z,100
2023-06-22T10:23:30.103Z,100
2023-06-22T10:25:09.882Z,100
2023-06-22T10:26:49.646Z,100
2023-06-22T10:28:29.430Z,100
2023-06-22T10:30:09.185Z,100
2023-06-22T10:31:48.962Z,100
2023-06-22T10:33:28.754Z,100
2023-06-22T10:35:08.612Z,100
2023-06-22T10:36:48.283Z,100
2023-06-22T10:38:28.062Z,100
2023-06-22T10:40:07.893Z,100
2023-06-22T10:41:47.624Z,100
2023-06-22T10:43:27.375Z,100
2023-06-22T10:45:07.129Z,100
2023-06-22T10:46:46.893Z,100
2023-06-22T10:48:26.668Z,100
2023-06-22T10:50:06.469Z,100
2023-06-22T10:51:46.242Z,100
2023-06-22T10:53:26.029Z,100
2023-06-22T10:55:05.761Z,100
2023-06-22T10:56:45.598Z,100
2023-06-22T10:58:25.457Z,100
2023-06-22T11:00:05.246Z,100
2023-06-22T11:01:45.110Z,100
2023-06-22T11:03:24.787Z,100
2023-06-22T11:05:04.489Z,100
2023-06-22T11:06:44.313Z,100
2023-06-22T11:08:24.037Z,100
2023-06-22T11:10:03.839Z,100
2023-06-22T11:11:43.561Z,100
2023-06-22T11:13:23.457Z,100
2023-06-22T11:15:03.219Z,100
2023-06-22T11:16:42.962Z,100
2023-06-22T11:18:22.708Z,100
2023-06-22T11:20:02.521Z,100
2023-06-22T11:21:42.348Z,100
2023-06-22T11:23:22.055Z,100
2023-06-22T11:25:01.908Z,100
2023-06-22T11:26:41.672Z,100
2023-06-22T11:28:21.344Z,100
2023-06-22T11:30:01.124Z,100
2023-06-22T11:31:40.890Z,100
2023-06-22T11:33:20.657Z,100
2023-06-22T11:35:00.530Z,100
2023-06-22T11:36:40.194Z,100
2023-06-22T11:38:19.964Z,100
2023-06-22T11:39:59.750Z,100
2023-06-22T11:41:39.516Z,100
2023-06-22T11:43:19.300Z,100
2023-06-22T11:44:59.121Z,100
2023-06-22T11:46:38.848Z,100
2023-06-22T11:48:18.615Z,100
2023-06-22T11:49:58.430Z,100
2023-06-22T11:51:38.084Z,100
2023-06-22T11:53:18.019Z,100
2023-06-22T11:54:57.723Z,100
2023-06-22T11:56:37.480Z,100
2023-06-22T11:58:17.222Z,100
2023-06-22T11:59:56.992Z,100
2023-06-22T12:01:36.788Z,100
2023-06-22T12:03:16.567Z,100
2023-06-22T12:04:56.322Z,100
2023-06-22T12:06:36.080Z,100
2023-06-22T12:08:15.787Z,100
2023-06-22T12:09:55.434Z,100
2023-06-22T12:11:35.210Z,100
2023-06-22T12:13:15.218Z,100
2023-06-22T12:14:54.903Z,100
2023-06-22T12:16:34.703Z,100
2023-06-22T12:18:14.470Z,100
2023-06-22T12:19:54.211Z,100
2023-06-22T12:21:34.009Z,100
2023-06-22T12:23:13.765Z,100
2023-06-22T12:24:53.570Z,100
2023-06-22T12:26:33.294Z,100
2023-06-22T12:28:13.026Z,100
2023-06-22T12:29:52.850Z,100
2023-06-22T12:31:32.669Z,100
2023-06-22T12:33:12.450Z,100
2023-06-22T12:34:52.262Z,100
2023-06-22T12:36:31.942Z,100
2023-06-22T12:38:11.698Z,100
2023-06-22T12:39:51.478Z,100
2023-06-22T12:41:31.286Z,100
2023-06-22T12:43:11.048Z,100
2023-06-22T12:44:50.600Z,100
2023-06-22T12:46:30.609Z,100
2023-06-22T12:48:10.406Z,100
2023-06-22T12:49:50.149Z,100
2023-06-22T12:51:29.684Z,100
2023-06-22T12:53:09.624Z,100
2023-06-22T12:54:49.401Z,100
2023-06-22T12:56:29.202Z,100
2023-06-22T12:58:08.948Z,100
2023-06-22T12:59:48.756Z,100
2023-06-22T13:01:28.462Z,100
2023-06-22T13:03:08.259Z,100
2023-06-22T13:04:48.087Z,100
2023-06-22T13:06:27.789Z,100
2023-06-22T13:08:07.654Z,100
2023-06-22T13:09:47.352Z,100
2023-06-22T13:11:27.171Z,100
2023-06-22T13:13:06.837Z,100
2023-06-22T13:14:46.653Z,100
2023-06-22T13:16:26.417Z,100
2023-06-22T13:18:06.224Z,100
2023-06-22T13:19:46.055Z,100
2023-06-22T13:21:25.556Z,100
2023-06-22T13:23:05.509Z,100
2023-06-22T13:24:45.304Z,100
2023-06-22T13:26:25.086Z,100
2023-06-22T13:28:04.828Z,100
2023-06-22T13:29:44.432Z,100
2023-06-22T13:31:24.346Z,100
2023-06-22T13:33:04.061Z,100
2023-06-22T13:34:43.733Z,100
2023-06-22T13:36:23.662Z,100
2023-06-22T13:38:03.304Z,100
2023-06-22T13:39:43.060Z,100
2023-06-22T13:41:22.859Z,100
2023-06-22T13:43:02.781Z,100
2023-06-22T13:44:42.381Z,100
2023-06-22T13:46:22.137Z,100
2023-06-22T13:48:01.922Z,100
2023-06-22T13:49:41.788Z,100
2023-06-22T13:51:21.432Z,100
2023-06-22T13:53:01.272Z,100
2023-06-22T13:54:41.168Z,100
2023-06-22T13:56:20.881Z,100
2023-06-22T13:58:00.671Z,100
2023-06-22T13:59:40.465Z,100
2023-06-22T14:01:20.287Z,100
2023-06-22T14:03:00.006Z,100
2023-06-22T14:04:39.603Z,100
2023-06-22T14:06:19.366Z,100
2023-06-22T14:07:59.340Z,100
2023-06-22T14:09:39.113Z,100
2023-06-22T14:11:18.861Z,100
2023-06-22T14:12:58.635Z,100
2023-06-22T14:14:38.222Z,100
2023-06-22T14:16:18.137Z,100
2023-06-22T14:17:57.867Z,100
2023-06-22T14:19:37.528Z,100
2023-06-22T14:21:17.595Z,100
2023-06-22T14:22:57.241Z,100
2023-06-22T14:24:36.861Z,100
2023-06-22T14:26:16.614Z,100
2023-06-22T14:27:56.540Z,100
2023-06-22T14:29:36.210Z,100
2023-06-22T14:31:16.069Z,100
2023-06-22T14:32:55.695Z,100
2023-06-22T14:34:35.533Z,100
2023-06-22T14:36:15.235Z,100
2023-06-22T14:37:55.050Z,100
2023-06-22T14:39:34.772Z,100
2023-06-22T14:41:14.547Z,100
2023-06-22T14:42:54.423Z,100
2023-06-22T14:44:34.186Z,100
2023-06-22T14:46:13.899Z,100
2023-06-22T14:47:53.635Z,100
2023-06-22T14:49:33.521Z,100
2023-06-22T14:51:13.177Z,100
2023-06-22T14:52:53.058Z,100
2023-06-22T14:54:32.729Z,100
2023-06-22T14:56:12.492Z,100
2023-06-22T14:57:52.373Z,100
2023-06-22T14:59:32.181Z,100
2023-06-22T15:01:11.824Z,100
2023-06-22T15:02:51.745Z,100
2023-06-22T15:04:31.456Z,100
2023-06-22T15:06:11.171Z,100
2023-06-22T15:07:50.944Z,100
2023-06-22T15:09:30.764Z,100
2023-06-22T15:11:10.407Z,100
2023-06-22T15:12:50.397Z,100
2023-06-22T15:14:30.109Z,100
2023-06-22T15:16:09.729Z,100
2023-06-22T15:17:49.630Z,100
2023-06-22T15:19:29.381Z,100
2023-06-22T15:21:09.118Z,100
2023-06-22T15:22:48.964Z,100
2023-06-22T15:24:28.763Z,100
2023-06-22T15:26:08.359Z,100
2023-06-22T15:27:48.169Z,100
2023-06-22T15:29:27.962Z,100
2023-06-22T15:31:07.697Z,100
2023-06-22T15:32:47.518Z,100
2023-06-22T15:34:27.242Z,100
2023-06-22T15:36:07.041Z,100
2023-06-22T15:37:46.890Z,100
2023-06-22T15:39:26.658Z,100
2023-06-22T15:41:06.434Z,100
2023-06-22T15:42:46.074Z,100
2023-06-22T15:44:25.868Z,100
2023-06-22T15:46:05.599Z,100
2023-06-22T15:47:45.519Z,100
2023-06-22T15:49:25.256Z,100
2023-06-22T15:51:04.966Z,100
2023-06-22T15:52:44.812Z,100
2023-06-22T15:54:24.637Z,100
2023-06-22T15:56:04.407Z,100
2023-06-22T15:57:44.093Z,100
2023-06-22T15:59:23.872Z,100
2023-06-22T16:01:03.652Z,100
2023-06-22T16:02:43.439Z,100
2023-06-22T16:04:23.223Z,100
2023-06-22T16:06:03.030Z,100
2023-06-22T16:07:42.681Z,100
2023-06-22T16:09:22.495Z,100
2023-06-22T16:11:02.430Z,100
2023-06-22T16:12:42.044Z,100
2023-06-22T16:14:21.849Z,100
2023-06-22T16:16:01.750Z,100
2023-06-22T16:17:41.468Z,100
2023-06-22T16:19:21.005Z,100
2023-06-22T16:21:00.978Z,100
2023-06-22T16:22:40.663Z,100
2023-06-22T16:24:20.338Z,100
2023-06-22T16:26:00.214Z,100
2023-06-22T16:27:40.028Z,100
2023-06-22T16:29:19.614Z,100
2023-06-22T16:30:59.549Z,100
2023-06-22T16:32:39.347Z,100
2023-06-22T16:34:19.058Z,100
2023-06-22T16:35:58.919Z,100
2023-06-22T16:37:38.635Z,100
2023-06-22T16:39:18.384Z,100
2023-06-22T16:40:58.194Z,100
2023-06-22T16:42:37.953Z,100
2023-06-22T16:44:17.645Z,100
2023-06-22T16:45:57.505Z,100
2023-06-22T16:47:37.115Z,100
2023-06-22T16:49:16.878Z,100
2023-06-22T16:50:56.753Z,100
2023-06-22T16:52:36.512Z,100
2023-06-22T16:54:16.199Z,100
2023-06-22T16:55:55.979Z,100
2023-06-22T16:57:35.850Z,100
2023-06-22T16:59:15.595Z,100
2023-06-22T17:00:55.472Z,100
2023-06-22T17:02:35.083Z,100
2023-06-22T17:04:15.044Z,100
2023-06-22T17:05:54.716Z,100
2023-06-22T17:07:34.495Z,100
2023-06-22T17:09:14.255Z,100
2023-06-22T17:10:54.087Z,100
2023-06-22T17:12:33.822Z,100
2023-06-22T17:14:13.606Z,100
2023-06-22T17:15:53.384Z,100
2023-06-22T17:17:33.164Z,100
2023-06-22T17:19:12.916Z,100
2023-06-22T17:20:52.709Z,100
2023-06-22T17:22:32.438Z,100
2023-06-22T17:24:12.192Z,100
2023-06-22T17:25:52.023Z,100
2023-06-22T17:27:31.763Z,100
2023-06-22T17:29:11.547Z,100
2023-06-22T17:30:51.134Z,100
2023-06-22T17:32:31.092Z,100
2023-06-22T17:34:10.865Z,100
2023-06-22T17:35:50.649Z,100
2023-06-22T17:37:30.227Z,100
2023-06-22T17:39:10.214Z,100
2023-06-22T17:40:49.935Z,100
2023-06-22T17:42:29.718Z,100
2023-06-22T17:44:09.483Z,100
2023-06-22T17:45:49.258Z,100
2023-06-22T17:47:29.085Z,100
2023-06-22T17:49:08.604Z,100
2023-06-22T17:50:48.551Z,100
2023-06-22T17:52:28.350Z,100
2023-06-22T17:54:08.151Z,100
2023-06-22T17:55:47.854Z,100
2023-06-22T17:57:27.590Z,100
2023-06-22T17:59:07.401Z,100
2023-06-22T18:00:47.156Z,100
2023-06-22T18:02:27.025Z,100
2023-06-22T18:04:06.701Z,100
2023-06-22T18:05:46.527Z,100
2023-06-22T18:07:26.310Z,100
2023-06-22T18:09:06.117Z,100
2023-06-22T18:10:45.834Z,100
2023-06-22T18:12:25.587Z,100
2023-06-22T18:14:05.330Z,100
2023-06-22T18:15:45.204Z,100
2023-06-22T18:17:24.708Z,100
2023-06-22T18:19:04.681Z,100
2023-06-22T18:20:44.251Z,100
2023-06-22T18:22:24.207Z,100
2023-06-22T18:24:03.993Z,100
2023-06-22T18:25:43.733Z,100
2023-06-22T18:27:23.515Z,100
2023-06-22T18:29:03.251Z,100
2023-06-22T18:30:43.011Z,100
2023-06-22T18:32:22.906Z,100
2023-06-22T18:34:02.643Z,100
2023-06-22T18:35:42.184Z,100
2023-06-22T18:37:22.135Z,100
2023-06-22T18:39:01.752Z,100
2023-06-22T18:40:41.663Z,100
2023-06-22T18:42:21.271Z,100
2023-06-22T18:44:01.180Z,100
2023-06-22T18:45:40.968Z,100
2023-06-22T18:47:20.778Z,100
2023-06-22T18:49:00.538Z,100
2023-06-22T18:50:40.284Z,100
2023-06-22T18:52:20.101Z,100
2023-06-22T18:53:59.829Z,100
2023-06-22T18:55:39.470Z,100
2023-06-22T18:57:19.378Z,100
2023-06-22T18:58:59.158Z,100
2023-06-22T19:00:38.898Z,100
2023-06-22T19:02:18.624Z,100
2023-06-22T19:03:58.484Z,100
2023-06-22T19:05:38.188Z,100
2023-06-22T19:07:17.788Z,100
2023-06-22T19:08:57.734Z,100
2023-06-22T19:10:37.532Z,100
2023-06-22T19:12:17.225Z,100
2023-06-22T19:13:57.033Z,100
2023-06-22T19:15:36.852Z,100
2023-06-22T19:17:16.608Z,100
2023-06-22T19:18:56.168Z,100
2023-06-22T19:20:36.100Z,100
2023-06-22T19:22:15.887Z,100
2023-06-22T19:23:55.591Z,100
2023-06-22T19:25:35.388Z,100
2023-06-22T19:27:15.171Z,100
2023-06-22T19:28:54.982Z,100
2023-06-22T19:30:34.743Z,100
2023-06-22T19:32:14.463Z,100
2023-06-22T19:33:54.262Z,100
2023-06-22T19:35:34.011Z,97
2023-06-22T19:37:13.846Z,91
2023-06-22T19:38:53.529Z,85
2023-06-22T19:40:33.299Z,79
2023-06-22T19:42:13.020Z,77
2023-06-22T19:43:52.944Z,77
2023-06-22T19:45:32.609Z,77
2023-06-22T19:47:12.364Z,77
2023-06-22T19:48:52.148Z,77
2023-06-22T19:50:31.873Z,77
2023-06-22T19:52:11.518Z,77
2023-06-22T19:53:51.297Z,77
2023-06-22T19:55:31.240Z,76
2023-06-22T19:57:10.866Z,76
2023-06-22T19:58:50.690Z,76
2023-06-22T20:00:30.537Z,76
2023-06-22T20:02:10.179Z,76
2023-06-22T20:03:49.900Z,76
2023-06-22T20:05:29.735Z,76
2023-06-22T20:07:09.534Z,76
2023-06-22T20:08:49.265Z,76
2023-06-22T20:10:29.219Z,76
2023-06-22T20:12:08.881Z,76
2023-06-22T20:13:48.496Z,76
2023-06-22T20:15:28.290Z,76
2023-06-22T20:17:08.036Z,75
2023-06-22T20:18:47.822Z,76
2023-06-22T20:20:27.573Z,75
2023-06-22T20:22:07.403Z,76
2023-06-22T20:23:47.110Z,75
2023-06-22T20:25:26.986Z,75
2023-06-22T20:27:06.652Z,75
2023-06-22T20:28:46.407Z,75
2023-06-22T20:30:26.235Z,75
2023-06-22T20:32:05.953Z,75
2023-06-22T20:33:45.741Z,75
2023-06-22T20:35:25.482Z,75
2023-06-22T20:37:05.244Z,75
2023-06-22T20:38:45.019Z,75
2023-06-22T20:40:24.814Z,75
2023-06-22T20:42:04.550Z,75
2023-06-22T20:43:44.313Z,75
2023-06-22T20:45:24.081Z,75
2023-06-22T20:47:03.939Z,75
2023-06-22T20:48:43.704Z,75
2023-06-22T20:50:23.417Z,75
2023-06-22T20:52:03.262Z,75
2023-06-22T20:53:42.961Z,75
2023-06-22T20:55:22.677Z,75
2023-06-22T20:57:02.469Z,75
2023-06-22T20:58:42.229Z,75
2023-06-22T21:00:21.975Z,75
2023-06-22T21:02:01.754Z,75
2023-06-22T21:03:41.547Z,75
2023-06-22T21:05:21.296Z,75
2023-06-22T21:07:01.129Z,74
2023-06-22T21:08:40.819Z,74
2023-06-22T21:10:20.594Z,74
2023-06-22T21:12:00.359Z,74
2023-06-22T21:13:40.133Z,74
2023-06-22T21:15:19.996Z,74
2023-06-22T21:16:59.675Z,74
2023-06-22T21:18:39.475Z,74
2023-06-22T21:20:19.192Z,74
2023-06-22T21:21:58.969Z,74
2023-06-22T21:23:38.722Z,74
2023-06-22T21:25:18.544Z,74
2023-06-22T21:26:58.325Z,74
2023-06-22T21:28:38.035Z,74
2023-06-22T21:30:17.832Z,74
2023-06-22T21:31:57.592Z,74
2023-06-22T21:33:37.338Z,74
2023-06-22T21:35:17.138Z,74
2023-06-22T21:36:56.882Z,74
2023-06-22T21:38:36.668Z,74
2023-06-22T21:40:16.422Z,74
2023-06-22T21:41:56.247Z,73
2023-06-22T21:43:35.966Z,74
2023-06-22T21:45:15.738Z,74
2023-06-22T21:46:55.583Z,74
2023-06-22T21:48:35.326Z,73
2023-06-22T21:50:15.063Z,73
2023-06-22T21:51:54.784Z,73
2023-06-22T21:53:34.565Z,73
2023-06-22T21:55:14.322Z,73
2023-06-22T21:56:54.101Z,73
2023-06-22T21:58:33.877Z,73
2023-06-22T22:00:13.632Z,73
2023-06-22T22:01:53.387Z,73
2023-06-22T22:03:33.157Z,73
2023-06-22T22:05:12.933Z,73
2023-06-22T22:06:52.706Z,73
2023-06-22T22:08:32.535Z,73
2023-06-22T22:10:12.279Z,72
2023-06-22T22:11:52.030Z,73
2023-06-22T22:13:31.759Z,73
2023-06-22T22:15:11.521Z,73
2023-06-22T22:16:51.348Z,73
2023-06-22T22:18:31.119Z,72
2023-06-22T22:20:10.840Z,72
2023-06-22T22:21:50.609Z,72
2023-06-22T22:23:30.396Z,72
2023-06-22T22:25:10.141Z,72
2023-06-22T22:26:49.903Z,72
2023-06-22T22:28:29.682Z,72
2023-06-22T22:30:09.461Z,72
2023-06-22T22:31:49.215Z,72
2023-06-22T22:33:28.990Z,72
2023-06-22T22:35:08.772Z,72
2023-06-22T22:36:48.502Z,72
2023-06-22T22:38:28.275Z,72
2023-06-22T22:40:08.066Z,72
2023-06-22T22:41:47.816Z,72
2023-06-22T22:43:27.585Z,72
2023-06-22T22:45:07.397Z,72
2023-06-22T22:46:47.116Z,72
2023-06-22T22:48:26.893Z,72
2023-06-22T22:50:06.644Z,72
2023-06-22T22:51:46.431Z,71
2023-06-22T22:53:26.184Z,72
2023-06-22T22:55:05.995Z,72
2023-06-22T22:56:45.719Z,72
2023-06-22T22:58:25.491Z,72
2023-06-22T23:00:05.271Z,71
2023-06-22T23:01:45.020Z,71
2023-06-22T23:03:24.795Z,71
2023-06-22T23:05:04.595Z,71
2023-06-22T23:06:44.326Z,71
2023-06-22T23:08:24.088Z,71
2023-06-22T23:10:04.013Z,71
2023-06-22T23:11:43.790Z,71
2023-06-22T23:13:23.541Z,71
2023-06-22T23:15:03.298Z,71
2023-06-22T23:16:43.066Z,71
2023-06-22T23:18:22.826Z,71